Terminal Aerodrome Forecast
Issued by NWS

Home | Current Version | Previous Version | Text Only | Print | Product List | Glossary On
Versions: 1 2 3 4 5 6 7 8 9 10 11 12 13 14 15 16 17 18 19 20 21 22 23 24 25 26 27 28
000
FTUS43 KLSX 202200 AAC
TAFUIN
TAF AMD
KUIN 202210Z 2022/2118 16005KT 3SM BR FEW009 OVC025
     FM210300 16006KT P6SM OVC019
     FM211500 17012KT P6SM OVC015=

USA.gov is the U.S. government's official web portal to all federal, state and local government web resources and services.